sensor_id;sensor_type;location;lat;lon;timestamp;temperature;humidity
15713;DHT22;7957;51.608;6.916;2023-02-02T00:01:17;5.00;99.90
15713;DHT22;7957;51.608;6.916;2023-02-02T00:03:46;5.00;99.90
15713;DHT22;7957;51.608;6.916;2023-02-02T00:06:15;5.00;99.90
15713;DHT22;7957;51.608;6.916;2023-02-02T00:08:42;5.00;99.90
15713;DHT22;7957;51.608;6.916;2023-02-02T00:11:09;5.00;99.90
15713;DHT22;7957;51.608;6.916;2023-02-02T00:13:37;5.00;99.90
15713;DHT22;7957;51.608;6.916;2023-02-02T00:16:32;5.00;99.90
15713;DHT22;7957;51.608;6.916;2023-02-02T00:19:03;5.00;99.90
15713;DHT22;7957;51.608;6.916;2023-02-02T00:21:30;5.00;99.90
15713;DHT22;7957;51.608;6.916;2023-02-02T00:23:57;5.00;99.90
15713;DHT22;7957;51.608;6.916;2023-02-02T00:26:25;5.00;99.90
15713;DHT22;7957;51.608;6.916;2023-02-02T00:28:52;5.00;99.90
15713;DHT22;7957;51.608;6.916;2023-02-02T00:31:19;5.00;99.90
15713;DHT22;7957;51.608;6.916;2023-02-02T00:33:47;5.00;99.90
15713;DHT22;7957;51.608;6.916;2023-02-02T00:36:17;5.00;99.90
15713;DHT22;7957;51.608;6.916;2023-02-02T00:38:45;5.00;99.90
15713;DHT22;7957;51.608;6.916;2023-02-02T00:41:12;5.00;99.90
15713;DHT22;7957;51.608;6.916;2023-02-02T00:43:39;5.00;99.90
15713;DHT22;7957;51.608;6.916;2023-02-02T00:46:09;5.00;99.90
15713;DHT22;7957;51.608;6.916;2023-02-02T00:48:36;5.00;99.90
15713;DHT22;7957;51.608;6.916;2023-02-02T00:51:03;5.00;99.90
15713;DHT22;7957;51.608;6.916;2023-02-02T00:53:31;5.00;99.90
15713;DHT22;7957;51.608;6.916;2023-02-02T00:56:01;5.10;99.90
15713;DHT22;7957;51.608;6.916;2023-02-02T00:58:28;5.10;99.90
15713;DHT22;7957;51.608;6.916;2023-02-02T01:00:57;5.10;99.90
15713;DHT22;7957;51.608;6.916;2023-02-02T01:03:24;5.10;99.90
15713;DHT22;7957;51.608;6.916;2023-02-02T01:05:51;5.10;99.90
15713;DHT22;7957;51.608;6.916;2023-02-02T01:08:18;5.10;99.90
15713;DHT22;7957;51.608;6.916;2023-02-02T01:10:46;5.20;99.90
15713;DHT22;7957;51.608;6.916;2023-02-02T01:13:13;5.20;99.90
15713;DHT22;7957;51.608;6.916;2023-02-02T01:15:40;5.10;99.90
15713;DHT22;7957;51.608;6.916;2023-02-02T01:18:07;5.20;99.90
15713;DHT22;7957;51.608;6.916;2023-02-02T01:20:34;5.20;99.90
15713;DHT22;7957;51.608;6.916;2023-02-02T01:23:01;5.20;99.90
15713;DHT22;7957;51.608;6.916;2023-02-02T01:25:28;5.20;99.90
15713;DHT22;7957;51.608;6.916;2023-02-02T01:27:58;5.20;99.90
15713;DHT22;7957;51.608;6.916;2023-02-02T01:30:25;5.20;99.90
15713;DHT22;7957;51.608;6.916;2023-02-02T01:32:53;5.20;99.90
15713;DHT22;7957;51.608;6.916;2023-02-02T01:35:20;5.20;99.90
15713;DHT22;7957;51.608;6.916;2023-02-02T01:37:47;5.30;99.90
15713;DHT22;7957;51.608;6.916;2023-02-02T01:40:14;5.30;99.90
15713;DHT22;7957;51.608;6.916;2023-02-02T01:42:41;5.30;99.90
15713;DHT22;7957;51.608;6.916;2023-02-02T01:45:20;5.30;99.90
15713;DHT22;7957;51.608;6.916;2023-02-02T01:47:50;5.30;99.90
15713;DHT22;7957;51.608;6.916;2023-02-02T01:50:20;5.30;99.90
15713;DHT22;7957;51.608;6.916;2023-02-02T01:52:48;5.30;99.90
15713;DHT22;7957;51.608;6.916;2023-02-02T01:55:19;5.30;99.90
15713;DHT22;7957;51.608;6.916;2023-02-02T01:57:50;5.30;99.90
15713;DHT22;7957;51.608;6.916;2023-02-02T02:00:21;5.30;99.90
15713;DHT22;7957;51.608;6.916;2023-02-02T02:02:53;5.40;99.90
15713;DHT22;7957;51.608;6.916;2023-02-02T02:05:25;5.40;99.90
15713;DHT22;7957;51.608;6.916;2023-02-02T02:07:56;5.40;99.90
15713;DHT22;7957;51.608;6.916;2023-02-02T02:10:26;5.40;99.90
15713;DHT22;7957;51.608;6.916;2023-02-02T02:12:53;5.40;99.90
15713;DHT22;7957;51.608;6.916;2023-02-02T02:15:21;5.40;99.90
15713;DHT22;7957;51.608;6.916;2023-02-02T02:18:14;5.40;99.90
15713;DHT22;7957;51.608;6.916;2023-02-02T02:21:02;5.40;99.90
15713;DHT22;7957;51.608;6.916;2023-02-02T02:24:20;5.40;99.90
15713;DHT22;7957;51.608;6.916;2023-02-02T02:27:32;5.40;99.90
15713;DHT22;7957;51.608;6.916;2023-02-02T02:30:32;5.50;99.90
15713;DHT22;7957;51.608;6.916;2023-02-02T02:33:04;5.50;99.90
15713;DHT22;7957;51.608;6.916;2023-02-02T02:35:38;5.50;99.90
15713;DHT22;7957;51.608;6.916;2023-02-02T02:38:12;5.50;99.90
15713;DHT22;7957;51.608;6.916;2023-02-02T02:40:46;5.50;99.90
15713;DHT22;7957;51.608;6.916;2023-02-02T02:43:17;5.50;99.90
15713;DHT22;7957;51.608;6.916;2023-02-02T02:45:45;5.50;99.90
15713;DHT22;7957;51.608;6.916;2023-02-02T02:48:14;5.50;99.90
15713;DHT22;7957;51.608;6.916;2023-02-02T02:50:41;5.50;99.90
15713;DHT22;7957;51.608;6.916;2023-02-02T02:53:13;5.50;99.90
15713;DHT22;7957;51.608;6.916;2023-02-02T02:55:48;5.50;99.90
15713;DHT22;7957;51.608;6.916;2023-02-02T02:58:22;5.60;99.90
15713;DHT22;7957;51.608;6.916;2023-02-02T03:01:00;5.50;99.90
15713;DHT22;7957;51.608;6.916;2023-02-02T03:03:44;5.50;99.90
15713;DHT22;7957;51.608;6.916;2023-02-02T03:06:20;5.60;99.90
15713;DHT22;7957;51.608;6.916;2023-02-02T03:08:52;5.60;99.90
15713;DHT22;7957;51.608;6.916;2023-02-02T03:11:20;5.60;99.90
15713;DHT22;7957;51.608;6.916;2023-02-02T03:13:47;5.50;99.90
15713;DHT22;7957;51.608;6.916;2023-02-02T03:16:15;5.60;99.90
15713;DHT22;7957;51.608;6.916;2023-02-02T03:18:43;5.60;99.90
15713;DHT22;7957;51.608;6.916;2023-02-02T03:21:13;5.60;99.90
15713;DHT22;7957;51.608;6.916;2023-02-02T03:23:40;5.60;99.90
15713;DHT22;7957;51.608;6.916;2023-02-02T03:26:07;5.60;99.90
15713;DHT22;7957;51.608;6.916;2023-02-02T03:28:35;5.60;99.90
15713;DHT22;7957;51.608;6.916;2023-02-02T03:31:02;5.60;99.90
15713;DHT22;7957;51.608;6.916;2023-02-02T03:33:30;5.60;99.90
15713;DHT22;7957;51.608;6.916;2023-02-02T03:35:59;5.60;99.90
15713;DHT22;7957;51.608;6.916;2023-02-02T03:38:26;5.60;99.90
15713;DHT22;7957;51.608;6.916;2023-02-02T03:40:53;5.60;99.90
15713;DHT22;7957;51.608;6.916;2023-02-02T03:43:20;5.60;99.90
15713;DHT22;7957;51.608;6.916;2023-02-02T03:45:47;5.60;99.90
15713;DHT22;7957;51.608;6.916;2023-02-02T03:48:20;5.60;99.90
15713;DHT22;7957;51.608;6.916;2023-02-02T03:50:47;5.60;99.90
15713;DHT22;7957;51.608;6.916;2023-02-02T03:53:15;5.60;99.90
15713;DHT22;7957;51.608;6.916;2023-02-02T03:55:42;5.60;99.90
15713;DHT22;7957;51.608;6.916;2023-02-02T03:58:09;5.60;99.90
15713;DHT22;7957;51.608;6.916;2023-02-02T04:00:36;5.60;99.90
15713;DHT22;7957;51.608;6.916;2023-02-02T04:03:03;5.60;99.90
15713;DHT22;7957;51.608;6.916;2023-02-02T04:05:30;5.60;99.90
15713;DHT22;7957;51.608;6.916;2023-02-02T04:07:56;5.60;99.90
15713;DHT22;7957;51.608;6.916;2023-02-02T04:10:25;5.60;99.90
15713;DHT22;7957;51.608;6.916;2023-02-02T04:12:54;5.60;99.90
15713;DHT22;7957;51.608;6.916;2023-02-02T04:15:21;5.60;99.90
15713;DHT22;7957;51.608;6.916;2023-02-02T04:17:48;5.60;99.90
15713;DHT22;7957;51.608;6.916;2023-02-02T04:20:15;5.60;99.90
15713;DHT22;7957;51.608;6.916;2023-02-02T04:22:42;5.60;99.90
15713;DHT22;7957;51.608;6.916;2023-02-02T04:25:09;5.60;99.90
15713;DHT22;7957;51.608;6.916;2023-02-02T04:27:37;5.60;99.90
15713;DHT22;7957;51.608;6.916;2023-02-02T04:30:05;5.60;99.90
15713;DHT22;7957;51.608;6.916;2023-02-02T04:32:33;5.60;99.90
15713;DHT22;7957;51.608;6.916;2023-02-02T04:35:00;5.60;99.90
15713;DHT22;7957;51.608;6.916;2023-02-02T04:37:29;5.60;99.90
15713;DHT22;7957;51.608;6.916;2023-02-02T04:39:56;5.60;99.90
15713;DHT22;7957;51.608;6.916;2023-02-02T04:42:23;5.60;99.90
15713;DHT22;7957;51.608;6.916;2023-02-02T04:44:51;5.60;99.90
15713;DHT22;7957;51.608;6.916;2023-02-02T04:47:18;5.60;99.90
15713;DHT22;7957;51.608;6.916;2023-02-02T04:49:45;5.60;99.90
15713;DHT22;7957;51.608;6.916;2023-02-02T04:52:12;5.60;99.90
15713;DHT22;7957;51.608;6.916;2023-02-02T04:54:39;5.60;99.90
15713;DHT22;7957;51.608;6.916;2023-02-02T04:57:06;5.60;99.90
15713;DHT22;7957;51.608;6.916;2023-02-02T04:59:33;5.70;99.90
15713;DHT22;7957;51.608;6.916;2023-02-02T05:02:01;5.70;99.90
15713;DHT22;7957;51.608;6.916;2023-02-02T05:04:28;5.70;99.90
15713;DHT22;7957;51.608;6.916;2023-02-02T05:06:55;5.70;99.90
15713;DHT22;7957;51.608;6.916;2023-02-02T05:09:22;5.70;99.90
15713;DHT22;7957;51.608;6.916;2023-02-02T05:11:49;5.70;99.90
15713;DHT22;7957;51.608;6.916;2023-02-02T05:14:16;5.70;99.90
15713;DHT22;7957;51.608;6.916;2023-02-02T05:16:44;5.70;99.90
15713;DHT22;7957;51.608;6.916;2023-02-02T05:19:12;5.70;99.90
15713;DHT22;7957;51.608;6.916;2023-02-02T05:21:41;5.70;99.90
15713;DHT22;7957;51.608;6.916;2023-02-02T05:24:09;5.70;99.90
15713;DHT22;7957;51.608;6.916;2023-02-02T05:26:36;5.80;99.90
15713;DHT22;7957;51.608;6.916;2023-02-02T05:29:04;5.80;99.90
15713;DHT22;7957;51.608;6.916;2023-02-02T05:31:31;5.80;99.90
15713;DHT22;7957;51.608;6.916;2023-02-02T05:33:58;5.80;99.90
15713;DHT22;7957;51.608;6.916;2023-02-02T05:36:27;5.80;99.90
15713;DHT22;7957;51.608;6.916;2023-02-02T05:38:54;5.80;99.90
15713;DHT22;7957;51.608;6.916;2023-02-02T05:41:26;5.80;99.90
15713;DHT22;7957;51.608;6.916;2023-02-02T05:43:53;5.80;99.90
15713;DHT22;7957;51.608;6.916;2023-02-02T05:46:20;5.80;99.90
15713;DHT22;7957;51.608;6.916;2023-02-02T05:48:47;5.80;99.90
15713;DHT22;7957;51.608;6.916;2023-02-02T05:51:17;5.80;99.90
15713;DHT22;7957;51.608;6.916;2023-02-02T05:53:46;5.80;99.90
15713;DHT22;7957;51.608;6.916;2023-02-02T05:56:13;5.80;99.90
15713;DHT22;7957;51.608;6.916;2023-02-02T05:58:40;5.80;99.90
15713;DHT22;7957;51.608;6.916;2023-02-02T06:01:07;5.80;99.90
15713;DHT22;7957;51.608;6.916;2023-02-02T06:03:35;5.80;99.90
15713;DHT22;7957;51.608;6.916;2023-02-02T06:06:02;5.90;99.90
15713;DHT22;7957;51.608;6.916;2023-02-02T06:08:29;5.90;99.90
15713;DHT22;7957;51.608;6.916;2023-02-02T06:10:57;5.90;99.90
15713;DHT22;7957;51.608;6.916;2023-02-02T06:13:24;5.90;99.90
15713;DHT22;7957;51.608;6.916;2023-02-02T06:15:51;5.90;99.90
15713;DHT22;7957;51.608;6.916;2023-02-02T06:18:18;5.90;99.90
15713;DHT22;7957;51.608;6.916;2023-02-02T06:20:45;5.90;99.90
15713;DHT22;7957;51.608;6.916;2023-02-02T06:23:12;5.90;99.90
15713;DHT22;7957;51.608;6.916;2023-02-02T06:25:39;5.90;99.90
15713;DHT22;7957;51.608;6.916;2023-02-02T06:28:07;5.90;99.90
15713;DHT22;7957;51.608;6.916;2023-02-02T06:30:34;5.90;99.90
15713;DHT22;7957;51.608;6.916;2023-02-02T06:33:01;5.90;99.90
15713;DHT22;7957;51.608;6.916;2023-02-02T06:35:28;5.90;99.90
15713;DHT22;7957;51.608;6.916;2023-02-02T06:37:55;6.00;99.90
15713;DHT22;7957;51.608;6.916;2023-02-02T06:40:23;6.00;99.90
15713;DHT22;7957;51.608;6.916;2023-02-02T06:42:54;6.00;99.90
15713;DHT22;7957;51.608;6.916;2023-02-02T06:45:23;6.00;99.90
15713;DHT22;7957;51.608;6.916;2023-02-02T06:47:50;6.00;99.90
15713;DHT22;7957;51.608;6.916;2023-02-02T06:50:17;6.00;99.90
15713;DHT22;7957;51.608;6.916;2023-02-02T06:52:48;6.00;99.90
15713;DHT22;7957;51.608;6.916;2023-02-02T06:55:16;6.00;99.90
15713;DHT22;7957;51.608;6.916;2023-02-02T06:57:43;6.00;99.90
15713;DHT22;7957;51.608;6.916;2023-02-02T07:00:11;6.00;99.90
15713;DHT22;7957;51.608;6.916;2023-02-02T07:02:43;6.00;99.90
15713;DHT22;7957;51.608;6.916;2023-02-02T07:05:10;6.00;99.90
15713;DHT22;7957;51.608;6.916;2023-02-02T07:07:38;6.00;99.90
15713;DHT22;7957;51.608;6.916;2023-02-02T07:10:05;6.00;99.90
15713;DHT22;7957;51.608;6.916;2023-02-02T07:12:32;6.00;99.90
15713;DHT22;7957;51.608;6.916;2023-02-02T07:14:59;6.00;99.90
15713;DHT22;7957;51.608;6.916;2023-02-02T07:17:26;6.00;99.90
15713;DHT22;7957;51.608;6.916;2023-02-02T07:19:55;6.00;99.90
15713;DHT22;7957;51.608;6.916;2023-02-02T07:22:22;6.00;99.90
15713;DHT22;7957;51.608;6.916;2023-02-02T07:24:49;6.00;99.90
15713;DHT22;7957;51.608;6.916;2023-02-02T07:27:16;6.00;99.90
15713;DHT22;7957;51.608;6.916;2023-02-02T07:29:43;6.00;99.90
15713;DHT22;7957;51.608;6.916;2023-02-02T07:32:10;6.10;99.90
15713;DHT22;7957;51.608;6.916;2023-02-02T07:34:38;6.10;99.90
15713;DHT22;7957;51.608;6.916;2023-02-02T07:37:08;6.10;99.90
15713;DHT22;7957;51.608;6.916;2023-02-02T07:39:35;6.10;99.90
15713;DHT22;7957;51.608;6.916;2023-02-02T07:42:04;6.10;99.90
15713;DHT22;7957;51.608;6.916;2023-02-02T07:44:33;6.10;99.90
15713;DHT22;7957;51.608;6.916;2023-02-02T07:46:59;6.10;99.90
15713;DHT22;7957;51.608;6.916;2023-02-02T07:49:26;6.10;99.90
15713;DHT22;7957;51.608;6.916;2023-02-02T07:51:53;6.10;99.90
15713;DHT22;7957;51.608;6.916;2023-02-02T07:54:22;6.10;99.90
15713;DHT22;7957;51.608;6.916;2023-02-02T07:56:48;6.00;99.90
15713;DHT22;7957;51.608;6.916;2023-02-02T07:59:15;6.10;99.90
15713;DHT22;7957;51.608;6.916;2023-02-02T08:01:42;6.10;99.90
15713;DHT22;7957;51.608;6.916;2023-02-02T08:04:09;6.10;99.90
15713;DHT22;7957;51.608;6.916;2023-02-02T08:06:38;6.10;99.90
15713;DHT22;7957;51.608;6.916;2023-02-02T08:09:07;6.10;99.90
15713;DHT22;7957;51.608;6.916;2023-02-02T08:11:36;6.10;99.90
15713;DHT22;7957;51.608;6.916;2023-02-02T08:14:03;6.10;99.90
15713;DHT22;7957;51.608;6.916;2023-02-02T08:16:31;6.10;99.90
15713;DHT22;7957;51.608;6.916;2023-02-02T08:18:59;6.10;99.90
15713;DHT22;7957;51.608;6.916;2023-02-02T08:21:26;6.10;99.90
15713;DHT22;7957;51.608;6.916;2023-02-02T08:23:53;6.20;99.90
15713;DHT22;7957;51.608;6.916;2023-02-02T08:26:22;6.20;99.90
15713;DHT22;7957;51.608;6.916;2023-02-02T08:28:53;6.20;99.90
15713;DHT22;7957;51.608;6.916;2023-02-02T08:31:22;6.20;99.90
15713;DHT22;7957;51.608;6.916;2023-02-02T08:33:49;6.20;99.90
15713;DHT22;7957;51.608;6.916;2023-02-02T08:36:20;6.20;99.90
15713;DHT22;7957;51.608;6.916;2023-02-02T08:38:47;6.20;99.90
15713;DHT22;7957;51.608;6.916;2023-02-02T08:41:16;6.20;99.90
15713;DHT22;7957;51.608;6.916;2023-02-02T08:43:44;6.20;99.90
15713;DHT22;7957;51.608;6.916;2023-02-02T08:46:14;6.20;99.90
15713;DHT22;7957;51.608;6.916;2023-02-02T08:48:43;6.30;99.90
15713;DHT22;7957;51.608;6.916;2023-02-02T08:51:11;6.20;99.90
15713;DHT22;7957;51.608;6.916;2023-02-02T08:53:39;6.20;99.90
15713;DHT22;7957;51.608;6.916;2023-02-02T08:56:09;6.30;99.90
15713;DHT22;7957;51.608;6.916;2023-02-02T08:58:37;6.30;99.90
15713;DHT22;7957;51.608;6.916;2023-02-02T09:01:05;6.30;99.90
15713;DHT22;7957;51.608;6.916;2023-02-02T09:03:34;6.30;99.90
15713;DHT22;7957;51.608;6.916;2023-02-02T09:06:04;6.30;99.90
15713;DHT22;7957;51.608;6.916;2023-02-02T09:08:31;6.30;99.90
15713;DHT22;7957;51.608;6.916;2023-02-02T09:11:03;6.30;99.90
15713;DHT22;7957;51.608;6.916;2023-02-02T09:13:30;6.30;99.90
15713;DHT22;7957;51.608;6.916;2023-02-02T09:15:59;6.30;99.90
15713;DHT22;7957;51.608;6.916;2023-02-02T09:18:26;6.30;99.90
15713;DHT22;7957;51.608;6.916;2023-02-02T09:20:59;6.30;99.90
15713;DHT22;7957;51.608;6.916;2023-02-02T09:23:28;6.30;99.90
15713;DHT22;7957;51.608;6.916;2023-02-02T09:25:55;6.30;99.90
15713;DHT22;7957;51.608;6.916;2023-02-02T09:28:22;6.30;99.90
15713;DHT22;7957;51.608;6.916;2023-02-02T09:30:49;6.30;99.90
15713;DHT22;7957;51.608;6.916;2023-02-02T09:33:16;6.30;99.90
15713;DHT22;7957;51.608;6.916;2023-02-02T09:35:43;6.40;99.90
15713;DHT22;7957;51.608;6.916;2023-02-02T09:38:11;6.40;99.90
15713;DHT22;7957;51.608;6.916;2023-02-02T09:40:39;6.40;99.90
15713;DHT22;7957;51.608;6.916;2023-02-02T09:43:20;6.40;99.90
15713;DHT22;7957;51.608;6.916;2023-02-02T09:45:55;6.40;99.90
15713;DHT22;7957;51.608;6.916;2023-02-02T09:48:30;6.40;99.90
15713;DHT22;7957;51.608;6.916;2023-02-02T09:51:04;6.40;99.90
15713;DHT22;7957;51.608;6.916;2023-02-02T09:53:43;6.40;99.90
15713;DHT22;7957;51.608;6.916;2023-02-02T09:56:20;6.40;99.90
15713;DHT22;7957;51.608;6.916;2023-02-02T09:58:51;6.40;99.90
15713;DHT22;7957;51.608;6.916;2023-02-02T10:01:21;6.50;99.90
15713;DHT22;7957;51.608;6.916;2023-02-02T10:03:57;6.50;99.90
15713;DHT22;7957;51.608;6.916;2023-02-02T10:06:32;6.50;99.90
15713;DHT22;7957;51.608;6.916;2023-02-02T10:09:12;6.50;99.90
15713;DHT22;7957;51.608;6.916;2023-02-02T10:11:44;6.50;99.90
15713;DHT22;7957;51.608;6.916;2023-02-02T10:14:17;6.50;99.90
15713;DHT22;7957;51.608;6.916;2023-02-02T10:16:47;6.50;99.90
15713;DHT22;7957;51.608;6.916;2023-02-02T10:19:15;6.50;99.90
15713;DHT22;7957;51.608;6.916;2023-02-02T10:21:45;6.50;99.90
15713;DHT22;7957;51.608;6.916;2023-02-02T10:24:18;6.50;99.90
15713;DHT22;7957;51.608;6.916;2023-02-02T10:26:47;6.50;99.90
15713;DHT22;7957;51.608;6.916;2023-02-02T10:29:17;6.50;99.90
15713;DHT22;7957;51.608;6.916;2023-02-02T10:31:53;6.50;99.90
15713;DHT22;7957;51.608;6.916;2023-02-02T10:34:25;6.50;99.90
15713;DHT22;7957;51.608;6.916;2023-02-02T10:37:06;6.50;99.90
15713;DHT22;7957;51.608;6.916;2023-02-02T10:39:51;6.50;99.90
15713;DHT22;7957;51.608;6.916;2023-02-02T10:42:28;6.50;99.90
15713;DHT22;7957;51.608;6.916;2023-02-02T10:45:02;6.60;99.90
15713;DHT22;7957;51.608;6.916;2023-02-02T10:47:32;6.50;99.90
15713;DHT22;7957;51.608;6.916;2023-02-02T10:50:13;6.60;99.90
15713;DHT22;7957;51.608;6.916;2023-02-02T10:52:44;6.60;99.90
15713;DHT22;7957;51.608;6.916;2023-02-02T10:55:20;6.60;99.90
15713;DHT22;7957;51.608;6.916;2023-02-02T10:58:02;6.60;99.90
15713;DHT22;7957;51.608;6.916;2023-02-02T11:00:34;6.60;99.90
15713;DHT22;7957;51.608;6.916;2023-02-02T11:03:03;6.70;99.90
15713;DHT22;7957;51.608;6.916;2023-02-02T11:05:32;6.70;99.90
15713;DHT22;7957;51.608;6.916;2023-02-02T11:08:18;6.70;99.90
15713;DHT22;7957;51.608;6.916;2023-02-02T11:10:49;6.70;99.90
15713;DHT22;7957;51.608;6.916;2023-02-02T11:13:27;6.70;99.90
15713;DHT22;7957;51.608;6.916;2023-02-02T11:16:20;6.70;99.90
15713;DHT22;7957;51.608;6.916;2023-02-02T11:18:55;6.70;99.90
15713;DHT22;7957;51.608;6.916;2023-02-02T11:21:24;6.70;99.90
15713;DHT22;7957;51.608;6.916;2023-02-02T11:23:58;6.70;99.90
15713;DHT22;7957;51.608;6.916;2023-02-02T11:26:38;6.70;99.90
15713;DHT22;7957;51.608;6.916;2023-02-02T11:29:13;6.70;99.90
15713;DHT22;7957;51.608;6.916;2023-02-02T11:31:40;6.80;99.90
15713;DHT22;7957;51.608;6.916;2023-02-02T11:34:14;6.80;99.90
15713;DHT22;7957;51.608;6.916;2023-02-02T11:36:58;6.80;99.90
15713;DHT22;7957;51.608;6.916;2023-02-02T11:39:25;6.80;99.90
15713;DHT22;7957;51.608;6.916;2023-02-02T11:42:00;6.80;99.90
15713;DHT22;7957;51.608;6.916;2023-02-02T11:44:29;6.80;99.90
15713;DHT22;7957;51.608;6.916;2023-02-02T11:47:00;6.80;99.90
15713;DHT22;7957;51.608;6.916;2023-02-02T11:49:27;6.90;99.90
15713;DHT22;7957;51.608;6.916;2023-02-02T11:51:56;6.90;99.90
15713;DHT22;7957;51.608;6.916;2023-02-02T11:54:27;6.90;99.90
15713;DHT22;7957;51.608;6.916;2023-02-02T11:56:56;6.90;99.90
15713;DHT22;7957;51.608;6.916;2023-02-02T11:59:30;7.00;99.90
15713;DHT22;7957;51.608;6.916;2023-02-02T12:02:21;7.00;99.90
15713;DHT22;7957;51.608;6.916;2023-02-02T12:04:50;7.00;99.90
15713;DHT22;7957;51.608;6.916;2023-02-02T12:07:21;7.00;99.90
15713;DHT22;7957;51.608;6.916;2023-02-02T12:09:49;7.00;99.90
15713;DHT22;7957;51.608;6.916;2023-02-02T12:12:27;7.00;99.90
15713;DHT22;7957;51.608;6.916;2023-02-02T12:15:06;7.00;99.90
15713;DHT22;7957;51.608;6.916;2023-02-02T12:17:37;7.00;99.90
15713;DHT22;7957;51.608;6.916;2023-02-02T12:20:15;7.00;99.90
15713;DHT22;7957;51.608;6.916;2023-02-02T12:23:02;7.00;99.90
15713;DHT22;7957;51.608;6.916;2023-02-02T12:25:41;7.00;99.90
15713;DHT22;7957;51.608;6.916;2023-02-02T12:28:20;7.00;99.90
15713;DHT22;7957;51.608;6.916;2023-02-02T12:30:56;7.00;99.90
15713;DHT22;7957;51.608;6.916;2023-02-02T12:33:30;7.00;99.90
15713;DHT22;7957;51.608;6.916;2023-02-02T12:36:20;7.00;99.90
15713;DHT22;7957;51.608;6.916;2023-02-02T12:39:17;6.90;99.90
15713;DHT22;7957;51.608;6.916;2023-02-02T12:42:07;6.90;99.90
15713;DHT22;7957;51.608;6.916;2023-02-02T12:44:46;7.00;99.90
15713;DHT22;7957;51.608;6.916;2023-02-02T12:47:22;7.00;99.90
15713;DHT22;7957;51.608;6.916;2023-02-02T12:50:03;7.00;99.90
15713;DHT22;7957;51.608;6.916;2023-02-02T12:52:43;6.90;99.90
15713;DHT22;7957;51.608;6.916;2023-02-02T12:55:22;7.00;99.90
15713;DHT22;7957;51.608;6.916;2023-02-02T12:58:00;7.00;99.90
15713;DHT22;7957;51.608;6.916;2023-02-02T13:00:39;6.90;99.90
15713;DHT22;7957;51.608;6.916;2023-02-02T13:03:29;6.90;99.90
15713;DHT22;7957;51.608;6.916;2023-02-02T13:06:09;6.90;99.90
15713;DHT22;7957;51.608;6.916;2023-02-02T13:08:46;7.00;99.90
15713;DHT22;7957;51.608;6.916;2023-02-02T13:11:20;7.00;99.90
15713;DHT22;7957;51.608;6.916;2023-02-02T13:14:01;6.90;99.90
15713;DHT22;7957;51.608;6.916;2023-02-02T13:16:34;7.00;99.90
15713;DHT22;7957;51.608;6.916;2023-02-02T13:19:06;7.00;99.90
15713;DHT22;7957;51.608;6.916;2023-02-02T13:21:37;7.00;99.90
15713;DHT22;7957;51.608;6.916;2023-02-02T13:24:09;7.00;99.90
15713;DHT22;7957;51.608;6.916;2023-02-02T13:26:40;7.00;99.90
15713;DHT22;7957;51.608;6.916;2023-02-02T13:29:18;7.00;99.90
15713;DHT22;7957;51.608;6.916;2023-02-02T13:31:50;7.00;99.90
15713;DHT22;7957;51.608;6.916;2023-02-02T13:34:24;7.00;99.90
15713;DHT22;7957;51.608;6.916;2023-02-02T13:36:56;7.00;99.90
15713;DHT22;7957;51.608;6.916;2023-02-02T13:39:31;7.00;99.90
15713;DHT22;7957;51.608;6.916;2023-02-02T13:42:00;7.00;99.90
15713;DHT22;7957;51.608;6.916;2023-02-02T13:44:31;7.00;99.90
15713;DHT22;7957;51.608;6.916;2023-02-02T13:47:04;7.00;99.90
15713;DHT22;7957;51.608;6.916;2023-02-02T13:49:37;7.00;99.90
15713;DHT22;7957;51.608;6.916;2023-02-02T13:52:22;7.00;99.90
15713;DHT22;7957;51.608;6.916;2023-02-02T13:55:25;7.00;99.90
15713;DHT22;7957;51.608;6.916;2023-02-02T13:58:23;7.00;99.90
15713;DHT22;7957;51.608;6.916;2023-02-02T14:00:59;7.00;99.90
15713;DHT22;7957;51.608;6.916;2023-02-02T14:03:30;7.00;99.90
15713;DHT22;7957;51.608;6.916;2023-02-02T14:06:06;7.00;99.90
15713;DHT22;7957;51.608;6.916;2023-02-02T14:08:34;7.00;99.90
15713;DHT22;7957;51.608;6.916;2023-02-02T14:11:04;7.00;99.90
15713;DHT22;7957;51.608;6.916;2023-02-02T14:13:40;7.00;99.90
15713;DHT22;7957;51.608;6.916;2023-02-02T14:22:46;7.00;99.90
15713;DHT22;7957;51.608;6.916;2023-02-02T14:25:46;7.00;99.90
15713;DHT22;7957;51.608;6.916;2023-02-02T14:28:43;7.10;99.90
15713;DHT22;7957;51.608;6.916;2023-02-02T14:31:29;7.10;99.90
15713;DHT22;7957;51.608;6.916;2023-02-02T14:34:31;7.00;99.90
15713;DHT22;7957;51.608;6.916;2023-02-02T14:37:19;7.00;99.90
15713;DHT22;7957;51.608;6.916;2023-02-02T14:39:54;7.10;99.90
15713;DHT22;7957;51.608;6.916;2023-02-02T14:42:33;7.00;99.90
15713;DHT22;7957;51.608;6.916;2023-02-02T14:45:27;7.10;99.90
15713;DHT22;7957;51.608;6.916;2023-02-02T14:47:55;7.10;99.90
15713;DHT22;7957;51.608;6.916;2023-02-02T14:50:43;7.10;99.90
15713;DHT22;7957;51.608;6.916;2023-02-02T14:53:20;7.00;99.90
15713;DHT22;7957;51.608;6.916;2023-02-02T14:55:59;7.10;99.90
15713;DHT22;7957;51.608;6.916;2023-02-02T14:58:30;7.00;99.90
15713;DHT22;7957;51.608;6.916;2023-02-02T15:01:10;7.10;99.90
15713;DHT22;7957;51.608;6.916;2023-02-02T15:03:47;7.10;99.90
15713;DHT22;7957;51.608;6.916;2023-02-02T15:06:26;7.10;99.90
15713;DHT22;7957;51.608;6.916;2023-02-02T15:09:26;7.00;99.90
15713;DHT22;7957;51.608;6.916;2023-02-02T15:12:25;7.10;99.90
15713;DHT22;7957;51.608;6.916;2023-02-02T15:15:01;7.00;99.90
15713;DHT22;7957;51.608;6.916;2023-02-02T15:17:33;7.10;99.90
15713;DHT22;7957;51.608;6.916;2023-02-02T15:20:10;7.10;99.90
15713;DHT22;7957;51.608;6.916;2023-02-02T15:22:42;7.10;99.90
15713;DHT22;7957;51.608;6.916;2023-02-02T15:25:17;7.10;99.90
15713;DHT22;7957;51.608;6.916;2023-02-02T15:27:55;7.00;99.90
15713;DHT22;7957;51.608;6.916;2023-02-02T15:30:23;7.10;99.90
15713;DHT22;7957;51.608;6.916;2023-02-02T15:32:52;7.00;99.90
15713;DHT22;7957;51.608;6.916;2023-02-02T15:35:23;7.00;99.90
15713;DHT22;7957;51.608;6.916;2023-02-02T15:37:57;7.10;99.90
15713;DHT22;7957;51.608;6.916;2023-02-02T15:40:26;7.10;99.90
15713;DHT22;7957;51.608;6.916;2023-02-02T15:42:58;7.10;99.90
15713;DHT22;7957;51.608;6.916;2023-02-02T15:45:38;7.10;99.90
15713;DHT22;7957;51.608;6.916;2023-02-02T15:48:18;7.00;99.90
15713;DHT22;7957;51.608;6.916;2023-02-02T15:50:47;7.10;99.90
15713;DHT22;7957;51.608;6.916;2023-02-02T15:53:21;7.10;99.90
15713;DHT22;7957;51.608;6.916;2023-02-02T15:55:49;7.10;99.90
15713;DHT22;7957;51.608;6.916;2023-02-02T15:58:29;7.10;99.90
15713;DHT22;7957;51.608;6.916;2023-02-02T16:01:03;7.10;99.90
15713;DHT22;7957;51.608;6.916;2023-02-02T16:03:37;7.10;99.90
15713;DHT22;7957;51.608;6.916;2023-02-02T16:06:07;7.00;99.90
15713;DHT22;7957;51.608;6.916;2023-02-02T16:08:36;7.00;99.90
15713;DHT22;7957;51.608;6.916;2023-02-02T16:11:08;7.10;99.90
15713;DHT22;7957;51.608;6.916;2023-02-02T16:13:38;7.00;99.90
15713;DHT22;7957;51.608;6.916;2023-02-02T16:16:20;7.00;99.90
15713;DHT22;7957;51.608;6.916;2023-02-02T16:19:04;7.00;99.90
15713;DHT22;7957;51.608;6.916;2023-02-02T16:21:34;7.00;99.90
15713;DHT22;7957;51.608;6.916;2023-02-02T16:24:04;7.00;99.90
15713;DHT22;7957;51.608;6.916;2023-02-02T16:26:33;7.00;99.90
15713;DHT22;7957;51.608;6.916;2023-02-02T16:29:04;7.00;99.90
15713;DHT22;7957;51.608;6.916;2023-02-02T16:31:31;7.00;99.90
15713;DHT22;7957;51.608;6.916;2023-02-02T16:33:58;7.00;99.90
15713;DHT22;7957;51.608;6.916;2023-02-02T16:36:28;7.00;99.90
15713;DHT22;7957;51.608;6.916;2023-02-02T16:38:56;7.00;99.90